sensor_id;sensor_type;location;lat;lon;timestamp;P1;durP1;ratioP1;P2;durP2;ratioP2
35022;SDS011;21214;44.912;8.204;2022-07-29T00:01:21;3.50;;;3.20;;
35022;SDS011;21214;44.912;8.204;2022-07-29T00:03:47;2.83;;;2.60;;
35022;SDS011;21214;44.912;8.204;2022-07-29T00:06:12;2.80;;;2.60;;
35022;SDS011;21214;44.912;8.204;2022-07-29T00:08:39;3.00;;;2.80;;
35022;SDS011;21214;44.912;8.204;2022-07-29T00:11:04;2.88;;;2.67;;
35022;SDS011;21214;44.912;8.204;2022-07-29T00:13:30;3.22;;;2.92;;
35022;SDS011;21214;44.912;8.204;2022-07-29T00:15:56;3.50;;;3.20;;
35022;SDS011;21214;44.912;8.204;2022-07-29T00:18:22;2.60;;;2.40;;
35022;SDS011;21214;44.912;8.204;2022-07-29T00:20:47;2.65;;;2.47;;
35022;SDS011;21214;44.912;8.204;2022-07-29T00:23:13;3.03;;;2.70;;
35022;SDS011;21214;44.912;8.204;2022-07-29T00:25:39;3.38;;;2.78;;
35022;SDS011;21214;44.912;8.204;2022-07-29T00:28:04;8.70;;;2.85;;
35022;SDS011;21214;44.912;8.204;2022-07-29T00:30:31;3.40;;;2.53;;
35022;SDS011;21214;44.912;8.204;2022-07-29T00:32:58;2.88;;;2.58;;
35022;SDS011;21214;44.912;8.204;2022-07-29T00:35:23;2.67;;;2.47;;
35022;SDS011;21214;44.912;8.204;2022-07-29T00:38:08;2.95;;;2.75;;
35022;SDS011;21214;44.912;8.204;2022-07-29T00:40:33;3.90;;;2.65;;
35022;SDS011;21214;44.912;8.204;2022-07-29T00:42:59;3.88;;;2.63;;
35022;SDS011;21214;44.912;8.204;2022-07-29T00:45:24;3.15;;;2.38;;
35022;SDS011;21214;44.912;8.204;2022-07-29T00:47:50;3.63;;;2.78;;
35022;SDS011;21214;44.912;8.204;2022-07-29T00:50:16;2.78;;;2.58;;
35022;SDS011;21214;44.912;8.204;2022-07-29T00:52:43;2.33;;;2.22;;
35022;SDS011;21214;44.912;8.204;2022-07-29T00:55:10;2.80;;;2.60;;
35022;SDS011;21214;44.912;8.204;2022-07-29T00:57:38;3.05;;;2.83;;
35022;SDS011;21214;44.912;8.204;2022-07-29T01:00:05;2.70;;;2.50;;
35022;SDS011;21214;44.912;8.204;2022-07-29T01:02:33;3.08;;;2.72;;
35022;SDS011;21214;44.912;8.204;2022-07-29T01:04:59;3.00;;;2.80;;
35022;SDS011;21214;44.912;8.204;2022-07-29T01:07:25;3.78;;;2.90;;
35022;SDS011;21214;44.912;8.204;2022-07-29T01:09:51;2.83;;;2.63;;
35022;SDS011;21214;44.912;8.204;2022-07-29T01:12:21;2.88;;;2.65;;
35022;SDS011;21214;44.912;8.204;2022-07-29T01:14:49;3.60;;;3.40;;
35022;SDS011;21214;44.912;8.204;2022-07-29T01:29:34;3.22;;;2.85;;
35022;SDS011;21214;44.912;8.204;2022-07-29T01:32:05;3.00;;;2.80;;
35022;SDS011;21214;44.912;8.204;2022-07-29T01:39:47;2.92;;;2.72;;
35022;SDS011;21214;44.912;8.204;2022-07-29T01:42:15;3.08;;;2.88;;
35022;SDS011;21214;44.912;8.204;2022-07-29T01:44:50;3.53;;;3.22;;
35022;SDS011;21214;44.912;8.204;2022-07-29T01:47:19;2.67;;;2.47;;
35022;SDS011;21214;44.912;8.204;2022-07-29T01:49:49;2.90;;;2.67;;
35022;SDS011;21214;44.912;8.204;2022-07-29T01:55:20;3.63;;;3.20;;
35022;SDS011;21214;44.912;8.204;2022-07-29T01:57:49;3.10;;;2.90;;
35022;SDS011;21214;44.912;8.204;2022-07-29T02:00:15;3.40;;;3.05;;
35022;SDS011;21214;44.912;8.204;2022-07-29T02:02:43;3.53;;;3.22;;
35022;SDS011;21214;44.912;8.204;2022-07-29T02:05:12;3.58;;;3.28;;
35022;SDS011;21214;44.912;8.204;2022-07-29T02:07:40;4.72;;;3.38;;
35022;SDS011;21214;44.912;8.204;2022-07-29T02:10:08;4.10;;;3.47;;
35022;SDS011;21214;44.912;8.204;2022-07-29T02:12:35;4.22;;;3.15;;
35022;SDS011;21214;44.912;8.204;2022-07-29T02:15:03;3.63;;;3.15;;
35022;SDS011;21214;44.912;8.204;2022-07-29T02:17:33;3.83;;;3.40;;
35022;SDS011;21214;44.912;8.204;2022-07-29T02:20:04;3.70;;;3.00;;
35022;SDS011;21214;44.912;8.204;2022-07-29T02:22:31;3.45;;;2.83;;
35022;SDS011;21214;44.912;8.204;2022-07-29T02:25:00;4.53;;;3.28;;
35022;SDS011;21214;44.912;8.204;2022-07-29T02:27:26;4.40;;;3.10;;
35022;SDS011;21214;44.912;8.204;2022-07-29T02:29:54;4.20;;;3.33;;
35022;SDS011;21214;44.912;8.204;2022-07-29T02:32:24;4.10;;;3.80;;
35022;SDS011;21214;44.912;8.204;2022-07-29T02:34:51;3.88;;;3.58;;
35022;SDS011;21214;44.912;8.204;2022-07-29T02:37:17;4.20;;;3.35;;
35022;SDS011;21214;44.912;8.204;2022-07-29T02:39:44;3.95;;;3.42;;
35022;SDS011;21214;44.912;8.204;2022-07-29T02:42:11;4.50;;;3.47;;
35022;SDS011;21214;44.912;8.204;2022-07-29T02:44:40;3.50;;;3.30;;
35022;SDS011;21214;44.912;8.204;2022-07-29T02:47:16;4.38;;;3.38;;
35022;SDS011;21214;44.912;8.204;2022-07-29T02:50:11;4.25;;;3.65;;
35022;SDS011;21214;44.912;8.204;2022-07-29T02:52:42;3.88;;;3.58;;
35022;SDS011;21214;44.912;8.204;2022-07-29T02:55:15;3.75;;;3.45;;
35022;SDS011;21214;44.912;8.204;2022-07-29T03:00:30;3.75;;;3.45;;
35022;SDS011;21214;44.912;8.204;2022-07-29T03:03:00;3.35;;;3.10;;
35022;SDS011;21214;44.912;8.204;2022-07-29T03:05:29;4.53;;;3.60;;
35022;SDS011;21214;44.912;8.204;2022-07-29T03:07:57;5.65;;;3.45;;
35022;SDS011;21214;44.912;8.204;2022-07-29T03:10:26;4.43;;;3.78;;
35022;SDS011;21214;44.912;8.204;2022-07-29T03:12:52;3.42;;;3.15;;
35022;SDS011;21214;44.912;8.204;2022-07-29T03:15:20;3.78;;;3.42;;
35022;SDS011;21214;44.912;8.204;2022-07-29T03:17:46;3.45;;;3.15;;
35022;SDS011;21214;44.912;8.204;2022-07-29T03:20:13;3.70;;;3.40;;
35022;SDS011;21214;44.912;8.204;2022-07-29T03:22:41;3.40;;;3.13;;
35022;SDS011;21214;44.912;8.204;2022-07-29T03:25:09;4.90;;;3.80;;
35022;SDS011;21214;44.912;8.204;2022-07-29T03:27:36;3.90;;;3.60;;
35022;SDS011;21214;44.912;8.204;2022-07-29T03:30:02;4.60;;;4.20;;
35022;SDS011;21214;44.912;8.204;2022-07-29T03:32:29;4.38;;;4.07;;
35022;SDS011;21214;44.912;8.204;2022-07-29T03:34:54;4.00;;;3.70;;
35022;SDS011;21214;44.912;8.204;2022-07-29T03:37:20;5.03;;;4.13;;
35022;SDS011;21214;44.912;8.204;2022-07-29T03:39:45;4.78;;;4.35;;
35022;SDS011;21214;44.912;8.204;2022-07-29T03:42:14;4.53;;;4.22;;
35022;SDS011;21214;44.912;8.204;2022-07-29T03:44:46;4.15;;;3.85;;
35022;SDS011;21214;44.912;8.204;2022-07-29T03:47:14;4.43;;;4.03;;
35022;SDS011;21214;44.912;8.204;2022-07-29T03:49:42;4.10;;;3.80;;
35022;SDS011;21214;44.912;8.204;2022-07-29T03:52:11;4.53;;;4.10;;
35022;SDS011;21214;44.912;8.204;2022-07-29T03:54:37;4.95;;;4.28;;
35022;SDS011;21214;44.912;8.204;2022-07-29T03:57:03;4.88;;;4.47;;
35022;SDS011;21214;44.912;8.204;2022-07-29T03:59:31;7.68;;;4.07;;
35022;SDS011;21214;44.912;8.204;2022-07-29T04:01:58;4.80;;;3.80;;
35022;SDS011;21214;44.912;8.204;2022-07-29T04:04:26;3.85;;;3.55;;
35022;SDS011;21214;44.912;8.204;2022-07-29T04:06:52;4.47;;;4.07;;
35022;SDS011;21214;44.912;8.204;2022-07-29T04:09:18;4.32;;;3.90;;
35022;SDS011;21214;44.912;8.204;2022-07-29T04:11:43;4.10;;;3.80;;
35022;SDS011;21214;44.912;8.204;2022-07-29T04:14:11;4.50;;;4.10;;
35022;SDS011;21214;44.912;8.204;2022-07-29T04:16:37;4.82;;;4.43;;
35022;SDS011;21214;44.912;8.204;2022-07-29T04:19:02;5.05;;;4.65;;
35022;SDS011;21214;44.912;8.204;2022-07-29T04:21:28;5.30;;;4.38;;
35022;SDS011;21214;44.912;8.204;2022-07-29T04:23:53;5.80;;;4.68;;
35022;SDS011;21214;44.912;8.204;2022-07-29T04:26:20;4.80;;;4.40;;
35022;SDS011;21214;44.912;8.204;2022-07-29T04:28:46;4.85;;;4.45;;
35022;SDS011;21214;44.912;8.204;2022-07-29T04:31:12;5.05;;;4.13;;
35022;SDS011;21214;44.912;8.204;2022-07-29T04:33:38;12.30;;;5.88;;
35022;SDS011;21214;44.912;8.204;2022-07-29T04:36:04;5.70;;;4.30;;
35022;SDS011;21214;44.912;8.204;2022-07-29T04:38:30;7.80;;;4.75;;
35022;SDS011;21214;44.912;8.204;2022-07-29T04:40:57;5.50;;;5.00;;
35022;SDS011;21214;44.912;8.204;2022-07-29T04:43:24;5.10;;;4.70;;
35022;SDS011;21214;44.912;8.204;2022-07-29T04:45:51;5.43;;;4.70;;
35022;SDS011;21214;44.912;8.204;2022-07-29T04:48:17;5.30;;;4.45;;
35022;SDS011;21214;44.912;8.204;2022-07-29T04:50:43;4.88;;;4.40;;
35022;SDS011;21214;44.912;8.204;2022-07-29T04:53:09;4.88;;;4.47;;
35022;SDS011;21214;44.912;8.204;2022-07-29T04:55:36;4.85;;;4.35;;
35022;SDS011;21214;44.912;8.204;2022-07-29T04:58:01;5.45;;;4.63;;
35022;SDS011;21214;44.912;8.204;2022-07-29T05:00:28;5.35;;;4.72;;
35022;SDS011;21214;44.912;8.204;2022-07-29T05:02:54;5.53;;;4.97;;
35022;SDS011;21214;44.912;8.204;2022-07-29T05:05:19;5.53;;;4.57;;
35022;SDS011;21214;44.912;8.204;2022-07-29T05:07:45;5.05;;;4.65;;
35022;SDS011;21214;44.912;8.204;2022-07-29T05:10:10;5.82;;;4.80;;
35022;SDS011;21214;44.912;8.204;2022-07-29T05:12:36;11.00;;;5.63;;
35022;SDS011;21214;44.912;8.204;2022-07-29T05:15:02;4.75;;;4.30;;
35022;SDS011;21214;44.912;8.204;2022-07-29T05:17:28;5.05;;;4.60;;
35022;SDS011;21214;44.912;8.204;2022-07-29T05:19:54;6.30;;;4.90;;
35022;SDS011;21214;44.912;8.204;2022-07-29T05:22:19;6.82;;;4.93;;
35022;SDS011;21214;44.912;8.204;2022-07-29T05:24:45;4.82;;;4.43;;
35022;SDS011;21214;44.912;8.204;2022-07-29T05:27:12;5.85;;;4.72;;
35022;SDS011;21214;44.912;8.204;2022-07-29T05:29:38;4.82;;;4.38;;
35022;SDS011;21214;44.912;8.204;2022-07-29T05:32:04;5.60;;;4.90;;
35022;SDS011;21214;44.912;8.204;2022-07-29T05:34:31;4.80;;;4.47;;
35022;SDS011;21214;44.912;8.204;2022-07-29T05:36:56;4.30;;;4.00;;
35022;SDS011;21214;44.912;8.204;2022-07-29T05:39:22;6.60;;;4.68;;
35022;SDS011;21214;44.912;8.204;2022-07-29T05:41:49;5.05;;;4.53;;
35022;SDS011;21214;44.912;8.204;2022-07-29T05:44:14;8.05;;;4.30;;
35022;SDS011;21214;44.912;8.204;2022-07-29T05:46:40;4.55;;;4.15;;
35022;SDS011;21214;44.912;8.204;2022-07-29T05:49:05;4.88;;;4.53;;
35022;SDS011;21214;44.912;8.204;2022-07-29T05:51:35;4.60;;;4.20;;
35022;SDS011;21214;44.912;8.204;2022-07-29T05:54:01;4.55;;;4.20;;
35022;SDS011;21214;44.912;8.204;2022-07-29T05:56:27;4.50;;;4.20;;
35022;SDS011;21214;44.912;8.204;2022-07-29T05:58:53;4.35;;;3.95;;
35022;SDS011;21214;44.912;8.204;2022-07-29T06:01:19;4.53;;;4.13;;
35022;SDS011;21214;44.912;8.204;2022-07-29T06:03:45;7.35;;;4.68;;
35022;SDS011;21214;44.912;8.204;2022-07-29T06:06:11;5.40;;;4.93;;
35022;SDS011;21214;44.912;8.204;2022-07-29T06:08:37;5.22;;;4.60;;
35022;SDS011;21214;44.912;8.204;2022-07-29T06:11:03;4.75;;;4.35;;
35022;SDS011;21214;44.912;8.204;2022-07-29T06:13:29;5.97;;;4.47;;
35022;SDS011;21214;44.912;8.204;2022-07-29T06:15:56;7.18;;;4.65;;
35022;SDS011;21214;44.912;8.204;2022-07-29T06:18:21;5.45;;;3.95;;
35022;SDS011;21214;44.912;8.204;2022-07-29T06:20:52;5.82;;;5.05;;
35022;SDS011;21214;44.912;8.204;2022-07-29T06:23:18;6.53;;;4.90;;
35022;SDS011;21214;44.912;8.204;2022-07-29T06:25:45;4.97;;;4.57;;
35022;SDS011;21214;44.912;8.204;2022-07-29T06:28:12;5.38;;;3.88;;
35022;SDS011;21214;44.912;8.204;2022-07-29T06:30:38;4.68;;;4.28;;
35022;SDS011;21214;44.912;8.204;2022-07-29T06:33:04;4.47;;;3.75;;
35022;SDS011;21214;44.912;8.204;2022-07-29T06:35:30;4.13;;;3.45;;
35022;SDS011;21214;44.912;8.204;2022-07-29T06:38:00;3.65;;;2.80;;
35022;SDS011;21214;44.912;8.204;2022-07-29T06:40:26;3.25;;;2.50;;
35022;SDS011;21214;44.912;8.204;2022-07-29T06:43:10;3.00;;;2.80;;
35022;SDS011;21214;44.912;8.204;2022-07-29T06:45:36;3.05;;;2.85;;
35022;SDS011;21214;44.912;8.204;2022-07-29T06:48:01;2.50;;;2.30;;
35022;SDS011;21214;44.912;8.204;2022-07-29T06:50:27;4.20;;;2.40;;
35022;SDS011;21214;44.912;8.204;2022-07-29T06:52:53;3.85;;;2.92;;
35022;SDS011;21214;44.912;8.204;2022-07-29T06:55:18;2.75;;;2.55;;
35022;SDS011;21214;44.912;8.204;2022-07-29T06:57:44;3.50;;;2.50;;
35022;SDS011;21214;44.912;8.204;2022-07-29T07:00:11;3.03;;;2.83;;
35022;SDS011;21214;44.912;8.204;2022-07-29T07:02:38;3.10;;;2.90;;
35022;SDS011;21214;44.912;8.204;2022-07-29T07:05:04;2.88;;;2.67;;
35022;SDS011;21214;44.912;8.204;2022-07-29T07:07:30;2.70;;;2.50;;
35022;SDS011;21214;44.912;8.204;2022-07-29T07:09:56;2.47;;;2.28;;
35022;SDS011;21214;44.912;8.204;2022-07-29T07:12:22;3.08;;;2.88;;
35022;SDS011;21214;44.912;8.204;2022-07-29T07:14:48;3.33;;;3.08;;
35022;SDS011;21214;44.912;8.204;2022-07-29T07:17:14;3.60;;;3.30;;
35022;SDS011;21214;44.912;8.204;2022-07-29T07:19:39;3.05;;;2.85;;
35022;SDS011;21214;44.912;8.204;2022-07-29T07:22:05;3.28;;;3.00;;
35022;SDS011;21214;44.912;8.204;2022-07-29T07:24:30;3.38;;;2.70;;
35022;SDS011;21214;44.912;8.204;2022-07-29T07:26:56;3.13;;;2.92;;
35022;SDS011;21214;44.912;8.204;2022-07-29T07:29:22;6.15;;;4.15;;
35022;SDS011;21214;44.912;8.204;2022-07-29T07:31:47;3.42;;;2.92;;
35022;SDS011;21214;44.912;8.204;2022-07-29T07:34:13;3.53;;;3.03;;
35022;SDS011;21214;44.912;8.204;2022-07-29T07:36:38;2.85;;;2.65;;
35022;SDS011;21214;44.912;8.204;2022-07-29T07:39:04;2.92;;;2.72;;
35022;SDS011;21214;44.912;8.204;2022-07-29T07:41:30;4.22;;;2.50;;
35022;SDS011;21214;44.912;8.204;2022-07-29T07:43:56;4.80;;;3.05;;
35022;SDS011;21214;44.912;8.204;2022-07-29T07:46:22;3.10;;;2.75;;
35022;SDS011;21214;44.912;8.204;2022-07-29T07:48:47;2.75;;;2.55;;
35022;SDS011;21214;44.912;8.204;2022-07-29T07:51:13;3.72;;;2.63;;
35022;SDS011;21214;44.912;8.204;2022-07-29T07:53:38;3.40;;;3.17;;
35022;SDS011;21214;44.912;8.204;2022-07-29T07:56:04;3.85;;;3.55;;
35022;SDS011;21214;44.912;8.204;2022-07-29T07:58:31;5.20;;;3.40;;
35022;SDS011;21214;44.912;8.204;2022-07-29T08:00:57;3.67;;;3.00;;
35022;SDS011;21214;44.912;8.204;2022-07-29T08:03:23;4.03;;;3.72;;
35022;SDS011;21214;44.912;8.204;2022-07-29T08:05:49;4.38;;;3.83;;
35022;SDS011;21214;44.912;8.204;2022-07-29T08:08:16;4.57;;;4.18;;
35022;SDS011;21214;44.912;8.204;2022-07-29T08:10:42;4.28;;;3.80;;
35022;SDS011;21214;44.912;8.204;2022-07-29T08:13:17;4.38;;;3.30;;
35022;SDS011;21214;44.912;8.204;2022-07-29T08:15:43;3.38;;;3.13;;
35022;SDS011;21214;44.912;8.204;2022-07-29T08:18:10;4.90;;;3.00;;
35022;SDS011;21214;44.912;8.204;2022-07-29T08:20:39;3.88;;;2.90;;
35022;SDS011;21214;44.912;8.204;2022-07-29T08:23:06;4.55;;;3.13;;
35022;SDS011;21214;44.912;8.204;2022-07-29T08:25:35;5.35;;;3.53;;
35022;SDS011;21214;44.912;8.204;2022-07-29T08:28:03;3.20;;;3.00;;
35022;SDS011;21214;44.912;8.204;2022-07-29T08:30:29;3.60;;;3.30;;
35022;SDS011;21214;44.912;8.204;2022-07-29T08:32:54;3.88;;;3.22;;
35022;SDS011;21214;44.912;8.204;2022-07-29T08:35:21;3.35;;;3.15;;
35022;SDS011;21214;44.912;8.204;2022-07-29T08:37:48;3.50;;;3.17;;
35022;SDS011;21214;44.912;8.204;2022-07-29T08:40:14;3.58;;;3.28;;
35022;SDS011;21214;44.912;8.204;2022-07-29T08:42:40;3.75;;;3.38;;
35022;SDS011;21214;44.912;8.204;2022-07-29T08:45:06;3.67;;;3.40;;
35022;SDS011;21214;44.912;8.204;2022-07-29T08:47:33;4.18;;;3.05;;
35022;SDS011;21214;44.912;8.204;2022-07-29T08:50:02;3.30;;;3.00;;
35022;SDS011;21214;44.912;8.204;2022-07-29T08:52:27;3.83;;;2.92;;
35022;SDS011;21214;44.912;8.204;2022-07-29T08:54:58;3.10;;;2.90;;
35022;SDS011;21214;44.912;8.204;2022-07-29T08:57:24;3.75;;;3.15;;
35022;SDS011;21214;44.912;8.204;2022-07-29T08:59:52;2.83;;;2.63;;
35022;SDS011;21214;44.912;8.204;2022-07-29T09:02:20;2.92;;;2.65;;
35022;SDS011;21214;44.912;8.204;2022-07-29T09:04:48;3.00;;;2.80;;
35022;SDS011;21214;44.912;8.204;2022-07-29T09:07:15;2.80;;;2.60;;
35022;SDS011;21214;44.912;8.204;2022-07-29T09:09:43;3.03;;;2.83;;
35022;SDS011;21214;44.912;8.204;2022-07-29T09:12:09;5.07;;;2.78;;
35022;SDS011;21214;44.912;8.204;2022-07-29T09:14:39;3.78;;;3.10;;
35022;SDS011;21214;44.912;8.204;2022-07-29T09:17:06;3.17;;;2.88;;
35022;SDS011;21214;44.912;8.204;2022-07-29T09:19:34;2.75;;;2.55;;
35022;SDS011;21214;44.912;8.204;2022-07-29T09:22:02;3.03;;;2.83;;
35022;SDS011;21214;44.912;8.204;2022-07-29T09:24:46;2.85;;;2.65;;
35022;SDS011;21214;44.912;8.204;2022-07-29T09:27:25;4.20;;;2.58;;
35022;SDS011;21214;44.912;8.204;2022-07-29T09:30:10;10.43;;;3.47;;
35022;SDS011;21214;44.912;8.204;2022-07-29T09:32:55;5.93;;;3.10;;
35022;SDS011;21214;44.912;8.204;2022-07-29T09:35:22;2.83;;;2.63;;
35022;SDS011;21214;44.912;8.204;2022-07-29T09:37:49;3.03;;;2.83;;
35022;SDS011;21214;44.912;8.204;2022-07-29T09:40:19;3.80;;;3.35;;
35022;SDS011;21214;44.912;8.204;2022-07-29T09:42:50;2.97;;;2.78;;
35022;SDS011;21214;44.912;8.204;2022-07-29T09:45:29;3.30;;;3.10;;
35022;SDS011;21214;44.912;8.204;2022-07-29T09:47:56;3.83;;;2.72;;
35022;SDS011;21214;44.912;8.204;2022-07-29T09:50:40;4.13;;;3.15;;
35022;SDS011;21214;44.912;8.204;2022-07-29T09:53:07;4.75;;;3.20;;
35022;SDS011;21214;44.912;8.204;2022-07-29T09:55:45;5.95;;;3.67;;
35022;SDS011;21214;44.912;8.204;2022-07-29T09:58:19;3.80;;;3.40;;
35022;SDS011;21214;44.912;8.204;2022-07-29T10:00:47;3.53;;;3.15;;
35022;SDS011;21214;44.912;8.204;2022-07-29T10:03:13;4.70;;;2.92;;
35022;SDS011;21214;44.912;8.204;2022-07-29T10:05:40;3.55;;;3.17;;
35022;SDS011;21214;44.912;8.204;2022-07-29T10:08:07;3.22;;;2.90;;
35022;SDS011;21214;44.912;8.204;2022-07-29T10:10:35;3.33;;;3.00;;
35022;SDS011;21214;44.912;8.204;2022-07-29T10:13:04;3.83;;;3.40;;
35022;SDS011;21214;44.912;8.204;2022-07-29T10:15:32;3.42;;;3.20;;
35022;SDS011;21214;44.912;8.204;2022-07-29T10:18:02;4.57;;;3.55;;
35022;SDS011;21214;44.912;8.204;2022-07-29T10:20:28;3.55;;;3.20;;
35022;SDS011;21214;44.912;8.204;2022-07-29T10:22:54;3.35;;;2.97;;
35022;SDS011;21214;44.912;8.204;2022-07-29T10:25:21;3.22;;;3.03;;
35022;SDS011;21214;44.912;8.204;2022-07-29T10:27:47;4.05;;;3.65;;
35022;SDS011;21214;44.912;8.204;2022-07-29T10:30:16;3.97;;;3.67;;
35022;SDS011;21214;44.912;8.204;2022-07-29T10:32:53;5.07;;;3.40;;
35022;SDS011;21214;44.912;8.204;2022-07-29T10:44:11;3.72;;;3.42;;
35022;SDS011;21214;44.912;8.204;2022-07-29T10:46:42;4.75;;;2.92;;
35022;SDS011;21214;44.912;8.204;2022-07-29T10:49:13;3.88;;;3.58;;
35022;SDS011;21214;44.912;8.204;2022-07-29T10:51:53;4.15;;;3.42;;
35022;SDS011;21214;44.912;8.204;2022-07-29T10:54:38;3.70;;;3.40;;
35022;SDS011;21214;44.912;8.204;2022-07-29T11:05:02;3.50;;;3.20;;
35022;SDS011;21214;44.912;8.204;2022-07-29T11:07:29;3.65;;;3.30;;
35022;SDS011;21214;44.912;8.204;2022-07-29T11:15:12;4.43;;;3.38;;
35022;SDS011;21214;44.912;8.204;2022-07-29T11:31:34;4.15;;;3.80;;
35022;SDS011;21214;44.912;8.204;2022-07-29T11:47:50;4.40;;;3.63;;
35022;SDS011;21214;44.912;8.204;2022-07-29T11:50:35;3.80;;;3.50;;
35022;SDS011;21214;44.912;8.204;2022-07-29T11:53:11;4.20;;;3.90;;
35022;SDS011;21214;44.912;8.204;2022-07-29T11:55:38;4.43;;;3.60;;
35022;SDS011;21214;44.912;8.204;2022-07-29T11:58:05;4.50;;;4.05;;
35022;SDS011;21214;44.912;8.204;2022-07-29T12:00:32;5.88;;;3.88;;
35022;SDS011;21214;44.912;8.204;2022-07-29T12:03:01;4.10;;;3.80;;
35022;SDS011;21214;44.912;8.204;2022-07-29T12:05:45;4.32;;;3.92;;
35022;SDS011;21214;44.912;8.204;2022-07-29T12:08:18;4.20;;;3.90;;
35022;SDS011;21214;44.912;8.204;2022-07-29T12:10:47;4.13;;;3.72;;
35022;SDS011;21214;44.912;8.204;2022-07-29T12:13:14;3.40;;;3.17;;
35022;SDS011;21214;44.912;8.204;2022-07-29T12:15:41;3.78;;;3.47;;
35022;SDS011;21214;44.912;8.204;2022-07-29T12:18:16;3.75;;;3.45;;
35022;SDS011;21214;44.912;8.204;2022-07-29T12:20:43;3.47;;;3.17;;
35022;SDS011;21214;44.912;8.204;2022-07-29T12:23:09;3.72;;;3.53;;
35022;SDS011;21214;44.912;8.204;2022-07-29T12:25:37;3.42;;;3.22;;
35022;SDS011;21214;44.912;8.204;2022-07-29T12:28:05;4.22;;;3.55;;
35022;SDS011;21214;44.912;8.204;2022-07-29T12:30:42;3.50;;;3.15;;
35022;SDS011;21214;44.912;8.204;2022-07-29T12:33:13;3.40;;;3.10;;
35022;SDS011;21214;44.912;8.204;2022-07-29T12:35:41;3.72;;;3.42;;
35022;SDS011;21214;44.912;8.204;2022-07-29T12:38:10;3.55;;;3.25;;
35022;SDS011;21214;44.912;8.204;2022-07-29T12:40:37;3.03;;;2.83;;
35022;SDS011;21214;44.912;8.204;2022-07-29T12:43:07;3.97;;;3.13;;
35022;SDS011;21214;44.912;8.204;2022-07-29T12:45:40;3.30;;;3.00;;
35022;SDS011;21214;44.912;8.204;2022-07-29T12:48:07;3.72;;;3.35;;
35022;SDS011;21214;44.912;8.204;2022-07-29T12:50:36;3.78;;;3.47;;
35022;SDS011;21214;44.912;8.204;2022-07-29T12:53:16;4.00;;;3.60;;
35022;SDS011;21214;44.912;8.204;2022-07-29T12:55:44;3.70;;;3.40;;
35022;SDS011;21214;44.912;8.204;2022-07-29T12:58:25;3.70;;;3.40;;
35022;SDS011;21214;44.912;8.204;2022-07-29T13:01:26;4.07;;;3.28;;
35022;SDS011;21214;44.912;8.204;2022-07-29T13:03:50;3.78;;;3.47;;
35022;SDS011;21214;44.912;8.204;2022-07-29T13:09:00;3.63;;;3.30;;
35022;SDS011;21214;44.912;8.204;2022-07-29T13:11:29;3.80;;;3.50;;
35022;SDS011;21214;44.912;8.204;2022-07-29T13:13:57;3.40;;;3.20;;
35022;SDS011;21214;44.912;8.204;2022-07-29T13:16:23;4.07;;;3.35;;
35022;SDS011;21214;44.912;8.204;2022-07-29T13:18:54;3.78;;;3.45;;
35022;SDS011;21214;44.912;8.204;2022-07-29T13:21:35;3.80;;;3.50;;
35022;SDS011;21214;44.912;8.204;2022-07-29T13:24:02;3.95;;;3.60;;
35022;SDS011;21214;44.912;8.204;2022-07-29T13:26:29;4.20;;;3.78;;
35022;SDS011;21214;44.912;8.204;2022-07-29T13:28:55;8.38;;;3.88;;
35022;SDS011;21214;44.912;8.204;2022-07-29T13:31:21;3.42;;;3.05;;
35022;SDS011;21214;44.912;8.204;2022-07-29T13:33:47;4.00;;;3.70;;
35022;SDS011;21214;44.912;8.204;2022-07-29T13:36:13;3.60;;;3.30;;
35022;SDS011;21214;44.912;8.204;2022-07-29T13:38:38;4.97;;;3.78;;
35022;SDS011;21214;44.912;8.204;2022-07-29T13:41:04;4.18;;;3.47;;
35022;SDS011;21214;44.912;8.204;2022-07-29T13:43:30;4.63;;;4.00;;
35022;SDS011;21214;44.912;8.204;2022-07-29T13:45:55;4.30;;;3.90;;
35022;SDS011;21214;44.912;8.204;2022-07-29T13:48:21;4.75;;;4.00;;
35022;SDS011;21214;44.912;8.204;2022-07-29T13:50:46;4.50;;;4.10;;
35022;SDS011;21214;44.912;8.204;2022-07-29T13:53:13;4.38;;;3.45;;
35022;SDS011;21214;44.912;8.204;2022-07-29T13:55:39;5.78;;;3.40;;
35022;SDS011;21214;44.912;8.204;2022-07-29T13:58:05;3.67;;;3.38;;
35022;SDS011;21214;44.912;8.204;2022-07-29T14:00:30;3.70;;;3.10;;
35022;SDS011;21214;44.912;8.204;2022-07-29T14:02:56;5.50;;;3.28;;
35022;SDS011;21214;44.912;8.204;2022-07-29T14:05:22;3.33;;;3.03;;
35022;SDS011;21214;44.912;8.204;2022-07-29T14:07:47;5.63;;;2.88;;
35022;SDS011;21214;44.912;8.204;2022-07-29T14:10:13;3.22;;;2.92;;
35022;SDS011;21214;44.912;8.204;2022-07-29T14:12:39;3.28;;;2.70;;
35022;SDS011;21214;44.912;8.204;2022-07-29T14:15:07;3.10;;;2.80;;
35022;SDS011;21214;44.912;8.204;2022-07-29T14:17:33;4.28;;;2.92;;
35022;SDS011;21214;44.912;8.204;2022-07-29T14:19:59;3.28;;;2.88;;
35022;SDS011;21214;44.912;8.204;2022-07-29T14:22:25;3.50;;;3.20;;
35022;SDS011;21214;44.912;8.204;2022-07-29T14:24:50;4.53;;;3.70;;
35022;SDS011;21214;44.912;8.204;2022-07-29T14:27:16;3.28;;;2.97;;
35022;SDS011;21214;44.912;8.204;2022-07-29T14:29:42;2.50;;;2.30;;
35022;SDS011;21214;44.912;8.204;2022-07-29T14:32:08;4.28;;;2.40;;
35022;SDS011;21214;44.912;8.204;2022-07-29T14:34:38;2.95;;;2.33;;
35022;SDS011;21214;44.912;8.204;2022-07-29T14:37:04;5.50;;;2.58;;
35022;SDS011;21214;44.912;8.204;2022-07-29T14:39:31;2.58;;;2.22;;
35022;SDS011;21214;44.912;8.204;2022-07-29T14:41:57;2.15;;;2.00;;
35022;SDS011;21214;44.912;8.204;2022-07-29T14:44:24;3.47;;;2.45;;
35022;SDS011;21214;44.912;8.204;2022-07-29T14:46:54;2.72;;;2.53;;
35022;SDS011;21214;44.912;8.204;2022-07-29T14:49:19;3.20;;;3.00;;
35022;SDS011;21214;44.912;8.204;2022-07-29T14:51:45;10.88;;;4.30;;
35022;SDS011;21214;44.912;8.204;2022-07-29T14:54:10;7.40;;;4.78;;
35022;SDS011;21214;44.912;8.204;2022-07-29T14:56:36;6.93;;;4.70;;
35022;SDS011;21214;44.912;8.204;2022-07-29T14:59:02;8.48;;;5.22;;
35022;SDS011;21214;44.912;8.204;2022-07-29T15:01:27;10.63;;;5.47;;
35022;SDS011;21214;44.912;8.204;2022-07-29T15:03:54;12.25;;;5.72;;
35022;SDS011;21214;44.912;8.204;2022-07-29T15:06:19;7.60;;;4.85;;
35022;SDS011;21214;44.912;8.204;2022-07-29T15:08:45;8.45;;;5.32;;
35022;SDS011;21214;44.912;8.204;2022-07-29T15:11:10;9.00;;;4.78;;
35022;SDS011;21214;44.912;8.204;2022-07-29T15:13:36;7.13;;;5.00;;
35022;SDS011;21214;44.912;8.204;2022-07-29T15:16:02;5.60;;;4.38;;
35022;SDS011;21214;44.912;8.204;2022-07-29T15:18:27;5.78;;;4.43;;
35022;SDS011;21214;44.912;8.204;2022-07-29T15:20:53;5.95;;;4.15;;
35022;SDS011;21214;44.912;8.204;2022-07-29T15:23:19;5.63;;;4.43;;
35022;SDS011;21214;44.912;8.204;2022-07-29T15:25:44;5.32;;;4.38;;
35022;SDS011;21214;44.912;8.204;2022-07-29T15:28:10;5.97;;;4.10;;
35022;SDS011;21214;44.912;8.204;2022-07-29T15:30:35;4.63;;;4.07;;
35022;SDS011;21214;44.912;8.204;2022-07-29T15:33:05;7.25;;;4.40;;
35022;SDS011;21214;44.912;8.204;2022-07-29T15:35:34;9.30;;;4.78;;
35022;SDS011;21214;44.912;8.204;2022-07-29T15:38:00;8.02;;;5.00;;
35022;SDS011;21214;44.912;8.204;2022-07-29T15:40:26;6.25;;;5.43;;
35022;SDS011;21214;44.912;8.204;2022-07-29T15:42:51;5.88;;;5.28;;
35022;SDS011;21214;44.912;8.204;2022-07-29T15:45:17;8.57;;;6.00;;
35022;SDS011;21214;44.912;8.204;2022-07-29T15:47:43;6.97;;;5.03;;
35022;SDS011;21214;44.912;8.204;2022-07-29T15:50:08;7.90;;;5.38;;
35022;SDS011;21214;44.912;8.204;2022-07-29T15:52:39;6.85;;;5.40;;
35022;SDS011;21214;44.912;8.204;2022-07-29T15:55:06;6.93;;;5.40;;
35022;SDS011;21214;44.912;8.204;2022-07-29T15:57:32;7.65;;;4.88;;
35022;SDS011;21214;44.912;8.204;2022-07-29T15:59:57;7.60;;;5.40;;
35022;SDS011;21214;44.912;8.204;2022-07-29T16:02:23;5.63;;;5.10;;
35022;SDS011;21214;44.912;8.204;2022-07-29T16:04:49;8.05;;;5.53;;
35022;SDS011;21214;44.912;8.204;2022-07-29T16:07:14;6.45;;;5.60;;